Time;durP1;ratioP1;P1;durP2;ratioP2;P2;SDS_P1;SDS_P2;PMS_P1;PMS_P2;Temp;Humidity;BMP_temperature;BMP_pressure;BME280_temperature;BME280_humidity;BME280_pressure;Samples;Min_cycle;Max_cycle;Signal;HPM_P1;HPM_P2
2022/04/03 00:02:02;;;;;;;6.03;3.90;;;-1.10;99.90;;;;;;5038206;28;20060;-86
2022/04/03 00:04:27;;;;;;;6.55;3.40;;;-1.00;99.90;;;;;;5040617;28;20048;-86
2022/04/03 00:06:54;;;;;;;4.03;3.50;;;-1.00;99.90;;;;;;5040274;28;20361;-86
2022/04/03 00:09:20;;;;;;;6.05;3.40;;;-1.10;99.90;;;;;;5038328;28;20500;-86
2022/04/03 00:11:48;;;;;;;6.28;3.70;;;-1.00;99.90;;;;;;5054131;28;20114;-85
2022/04/03 00:14:14;;;;;;;5.13;3.03;;;-0.90;99.90;;;;;;5039071;28;20025;-86
2022/04/03 00:16:40;;;;;;;5.43;3.35;;;-0.90;99.90;;;;;;5049387;28;20040;-86
2022/04/03 00:19:07;;;;;;;7.07;3.63;;;-0.90;99.90;;;;;;5037739;28;20056;-87
2022/04/03 00:21:35;;;;;;;7.70;3.78;;;-0.90;99.90;;;;;;5041644;28;20451;-87
2022/04/03 00:24:01;;;;;;;4.90;3.42;;;-0.80;99.90;;;;;;5039208;28;20029;-86
2022/04/03 00:26:30;;;;;;;5.70;3.70;;;-0.80;99.90;;;;;;5036568;28;20045;-86
2022/04/03 00:28:56;;;;;;;4.78;3.40;;;-0.80;99.90;;;;;;5056442;28;20404;-86
2022/04/03 00:31:22;;;;;;;5.25;3.47;;;-0.90;99.90;;;;;;5041626;28;20119;-86
2022/04/03 00:33:48;;;;;;;9.10;3.85;;;-0.90;99.90;;;;;;5049375;28;20045;-87
2022/04/03 00:36:14;;;;;;;4.70;3.50;;;-0.90;99.90;;;;;;5056798;28;20130;-85
2022/04/03 00:38:40;;;;;;;8.27;4.25;;;-1.00;99.90;;;;;;5040311;28;20068;-86
2022/04/03 00:41:10;;;;;;;6.30;3.85;;;-1.00;99.90;;;;;;5039868;28;20519;-87
2022/04/03 00:43:36;;;;;;;6.90;3.90;;;-0.90;99.90;;;;;;5057095;28;20428;-87
2022/04/03 00:46:03;;;;;;;5.93;3.63;;;-0.80;99.90;;;;;;5037450;28;20182;-86
2022/04/03 00:48:29;;;;;;;4.22;3.55;;;-0.80;99.90;;;;;;5041443;28;20190;-86
2022/04/03 00:50:55;;;;;;;4.25;2.97;;;-0.80;99.90;;;;;;5038753;28;20036;-86
2022/04/03 00:53:21;;;;;;;6.57;3.83;;;-0.70;99.90;;;;;;5038274;28;20047;-85
2022/04/03 00:55:47;;;;;;;6.70;3.83;;;-0.70;99.90;;;;;;5049418;28;20233;-86
2022/04/03 00:58:13;;;;;;;7.40;3.70;;;-0.90;99.90;;;;;;5037701;28;20033;-85
2022/04/03 01:00:40;;;;;;;5.45;3.33;;;-0.70;99.90;;;;;;5053514;28;20160;-86
2022/04/03 01:03:05;;;;;;;4.57;3.20;;;-0.70;99.90;;;;;;5034977;28;20032;-86
2022/04/03 01:05:31;;;;;;;4.70;3.28;;;-0.70;99.90;;;;;;5033918;28;20244;-84
2022/04/03 01:07:57;;;;;;;5.00;3.47;;;-0.70;99.90;;;;;;5046120;28;20056;-87
2022/04/03 01:10:23;;;;;;;4.80;3.58;;;-0.70;99.90;;;;;;5037468;28;20425;-86
2022/04/03 01:12:48;;;;;;;12.40;3.90;;;-0.70;99.90;;;;;;5038353;28;20032;-86
2022/04/03 01:15:15;;;;;;;4.63;3.17;;;-0.80;99.90;;;;;;5038785;28;20500;-86
2022/04/03 01:17:42;;;;;;;5.30;3.25;;;-0.80;99.90;;;;;;5048985;28;20060;-86
2022/04/03 01:20:09;;;;;;;4.57;3.50;;;-0.80;99.90;;;;;;5052405;28;20044;-86
2022/04/03 01:22:35;;;;;;;4.55;3.55;;;-0.80;99.90;;;;;;5056134;28;20048;-86
2022/04/03 01:25:01;;;;;;;6.70;3.90;;;-0.90;99.90;;;;;;5055284;28;20033;-85
2022/04/03 01:27:27;;;;;;;7.60;3.90;;;-0.80;99.90;;;;;;5051625;28;20118;-86
2022/04/03 01:29:52;;;;;;;5.90;3.50;;;-0.90;99.90;;;;;;5055837;28;20036;-86
2022/04/03 01:32:19;;;;;;;9.48;3.90;;;-1.00;1.00;;;;;;5050356;28;20446;-87
2022/04/03 01:34:45;;;;;;;6.78;4.22;;;-0.90;1.00;;;;;;5036304;28;20136;-87
2022/04/03 01:37:11;;;;;;;6.05;3.92;;;-0.80;1.00;;;;;;5040065;28;20475;-86
2022/04/03 01:39:36;;;;;;;4.55;3.20;;;-0.90;1.00;;;;;;5037919;28;20648;-86
2022/04/03 01:42:03;;;;;;;4.75;3.55;;;-0.80;88.50;;;;;;5038342;28;21279;-86
2022/04/03 01:44:30;;;;;;;8.00;3.65;;;-0.80;1.00;;;;;;5056355;28;20488;-86
2022/04/03 01:46:56;;;;;;;4.70;3.40;;;-0.90;1.00;;;;;;5050133;28;20154;-86
2022/04/03 01:49:25;;;;;;;6.80;3.78;;;-0.90;55.10;;;;;;5053467;28;20123;-84
2022/04/03 01:51:50;;;;;;;8.20;4.10;;;-0.90;99.90;;;;;;5037676;28;20395;-85
2022/04/03 01:54:16;;;;;;;6.30;3.80;;;-1.00;99.90;;;;;;5033529;28;20090;-86
2022/04/03 01:56:42;;;;;;;6.07;3.97;;;-0.90;99.90;;;;;;5035734;28;20044;-86
2022/04/03 01:59:08;;;;;;;6.10;3.55;;;-0.80;99.90;;;;;;5035451;28;20047;-83
2022/04/03 02:01:34;;;;;;;7.47;3.92;;;-0.70;99.90;;;;;;5052493;28;20097;-86
2022/04/03 02:04:02;;;;;;;7.20;3.90;;;-0.70;99.90;;;;;;5034677;28;20040;-86
2022/04/03 02:06:28;;;;;;;5.78;3.83;;;-0.70;99.90;;;;;;5033372;28;20048;-85
2022/04/03 02:08:54;;;;;;;7.15;4.22;;;-0.80;99.90;;;;;;5044265;28;20063;-85
2022/04/03 02:11:20;;;;;;;6.03;3.55;;;-0.70;99.90;;;;;;5036849;28;20135;-86
2022/04/03 02:13:45;;;;;;;6.00;4.00;;;-0.70;99.90;;;;;;5036683;28;20033;-85
2022/04/03 02:16:11;;;;;;;5.35;3.78;;;-0.70;99.90;;;;;;5037951;28;20097;-86
2022/04/03 02:18:37;;;;;;;5.05;3.95;;;-0.60;99.90;;;;;;5039036;28;20060;-86
2022/04/03 02:21:12;;;;;;;5.28;3.85;;;-0.60;99.90;;;;;;5048132;28;20117;-85
2022/04/03 02:23:38;;;;;;;5.55;3.85;;;-0.60;99.90;;;;;;5050164;28;20056;-85
2022/04/03 02:26:04;;;;;;;7.50;4.15;;;-0.60;99.90;;;;;;5056967;28;20066;-86
2022/04/03 02:28:30;;;;;;;9.75;4.47;;;-0.60;99.90;;;;;;5048864;28;20127;-86
2022/04/03 02:31:03;;;;;;;5.90;3.72;;;-0.60;99.90;;;;;;5061421;28;20148;-86
2022/04/03 02:33:29;;;;;;;8.27;4.30;;;-0.60;99.90;;;;;;5046093;28;20123;-86
2022/04/03 02:35:55;;;;;;;5.00;3.63;;;-0.60;99.90;;;;;;5037323;28;20147;-86
2022/04/03 02:38:20;;;;;;;7.18;4.10;;;-0.50;99.90;;;;;;5034776;28;20124;-87
2022/04/03 02:40:46;;;;;;;5.00;3.70;;;-0.50;99.90;;;;;;5051508;28;20051;-87
2022/04/03 02:43:12;;;;;;;5.93;3.97;;;-0.40;99.90;;;;;;5035877;28;20158;-86
2022/04/03 02:45:38;;;;;;;5.95;4.13;;;-0.40;99.90;;;;;;5030705;28;20134;-85
2022/04/03 02:48:05;;;;;;;7.32;4.00;;;-0.40;99.90;;;;;;5036627;28;20028;-85
2022/04/03 02:50:30;;;;;;;7.18;4.00;;;-0.30;99.90;;;;;;5036381;28;20047;-86
2022/04/03 02:52:56;;;;;;;5.30;3.92;;;-0.30;99.30;;;;;;5037291;28;20422;-86
2022/04/03 02:55:24;;;;;;;8.25;4.10;;;-0.30;99.90;;;;;;5035022;28;20060;-85
2022/04/03 02:57:52;;;;;;;4.85;3.58;;;-0.20;91.10;;;;;;5064587;28;20321;-86
2022/04/03 03:00:21;;;;;;;7.28;4.05;;;-0.20;95.20;;;;;;5052425;28;20122;-86
2022/04/03 03:02:54;;;;;;;4.82;3.63;;;-0.20;99.00;;;;;;5035832;28;20390;-86
2022/04/03 03:05:19;;;;;;;4.88;3.65;;;-0.10;95.40;;;;;;5052843;28;20034;-86
2022/04/03 03:07:46;;;;;;;6.13;3.75;;;-0.10;51.80;;;;;;5038571;28;20388;-86
2022/04/03 03:10:17;;;;;;;5.28;3.90;;;0.00;93.70;;;;;;5055430;28;20040;-87
2022/04/03 03:12:44;;;;;;;6.47;3.83;;;0.10;93.70;;;;;;5036107;28;20117;-86
2022/04/03 03:15:11;;;;;;;5.32;3.70;;;0.00;49.00;;;;;;5046744;28;20099;-87
2022/04/03 03:17:40;;;;;;;5.72;4.00;;;-0.10;90.80;;;;;;5037508;28;20503;-87
2022/04/03 03:20:06;;;;;;;5.85;4.55;;;0.00;99.90;;;;;;5050793;28;20032;-86
2022/04/03 03:22:35;;;;;;;7.70;4.60;;;-0.20;10.60;;;;;;5033446;28;20047;-86
2022/04/03 03:25:03;;;;;;;5.35;4.28;;;0.40;99.90;;;;;;5049682;28;20083;-86
2022/04/03 03:27:35;;;;;;;5.32;4.13;;;0.30;99.90;;;;;;5050783;28;20032;-87
2022/04/03 03:30:01;;;;;;;6.80;4.57;;;0.50;99.90;;;;;;5036029;28;20033;-87
2022/04/03 03:32:30;;;;;;;6.93;5.05;;;0.60;99.90;;;;;;5037617;28;20115;-87
2022/04/03 03:34:55;;;;;;;5.28;4.05;;;0.60;99.90;;;;;;5038453;28;20436;-87
2022/04/03 03:37:22;;;;;;;5.88;4.00;;;0.70;99.90;;;;;;5036679;28;20031;-87
2022/04/03 03:39:47;;;;;;;8.50;4.55;;;0.60;99.90;;;;;;5035808;28;20082;-86
2022/04/03 03:42:14;;;;;;;6.28;3.92;;;0.60;99.90;;;;;;5054398;28;20037;-85
2022/04/03 03:44:40;;;;;;;6.50;3.95;;;0.70;99.90;;;;;;5037005;28;20036;-86
2022/04/03 03:47:07;;;;;;;7.13;4.20;;;0.70;99.90;;;;;;5047852;28;20127;-86
2022/04/03 03:49:34;;;;;;;6.47;4.38;;;0.70;99.90;;;;;;5068454;28;20032;-87
2022/04/03 03:51:59;;;;;;;5.03;3.88;;;0.70;99.90;;;;;;5050928;28;20075;-86
2022/04/03 03:54:46;;;;;;;5.10;3.72;;;0.70;99.90;;;;;;5037167;28;20068;-87
2022/04/03 03:57:15;;;;;;;4.68;3.60;;;0.60;99.90;;;;;;5041466;28;20043;-86
2022/04/03 03:59:46;;;;;;;4.40;3.85;;;0.60;99.90;;;;;;5051622;28;20431;-88
2022/04/03 04:02:14;;;;;;;7.93;4.30;;;0.60;99.90;;;;;;5042462;28;20122;-86
2022/04/03 04:04:40;;;;;;;9.05;4.30;;;0.60;99.90;;;;;;5054873;28;20511;-87
2022/04/03 04:07:05;;;;;;;7.45;3.92;;;0.60;99.90;;;;;;5068568;28;20105;-86
2022/04/03 04:09:44;;;;;;;5.53;4.00;;;0.60;99.90;;;;;;5056468;28;20810;-87
2022/04/03 04:15:55;;;;;;;5.63;4.10;;;0.40;99.90;;;;;;5055917;28;20234;-86
2022/04/03 04:18:20;;;;;;;5.03;4.10;;;0.50;99.90;;;;;;5049825;28;20147;-85
2022/04/03 04:20:46;;;;;;;6.32;4.40;;;0.40;99.90;;;;;;5039614;28;20034;-85
2022/04/03 04:23:13;;;;;;;4.90;3.95;;;0.40;99.90;;;;;;5053260;28;20108;-86
2022/04/03 04:25:38;;;;;;;5.50;3.90;;;0.40;99.90;;;;;;5058188;28;20174;-86
2022/04/03 04:28:05;;;;;;;6.40;4.18;;;0.30;99.90;;;;;;5038836;28;20543;-86
2022/04/03 04:30:32;;;;;;;5.05;4.13;;;0.20;99.90;;;;;;5055972;28;20397;-85
2022/04/03 04:32:58;;;;;;;5.40;3.97;;;0.30;99.90;;;;;;5037696;28;20041;-85
2022/04/03 04:35:23;;;;;;;5.82;4.15;;;0.20;99.90;;;;;;5049889;28;20076;-86
2022/04/03 04:37:50;;;;;;;4.78;3.80;;;0.30;99.90;;;;;;5034065;28;20168;-86
2022/04/03 04:40:16;;;;;;;9.50;4.40;;;0.10;99.90;;;;;;5066353;28;20074;-86
2022/04/03 04:42:45;;;;;;;6.47;4.50;;;0.10;99.90;;;;;;5056209;28;20361;-86
2022/04/03 04:45:11;;;;;;;5.95;4.13;;;0.10;99.90;;;;;;5038591;28;20036;-85
2022/04/03 04:47:37;;;;;;;6.97;4.10;;;0.10;99.90;;;;;;5039518;28;20052;-86
2022/04/03 04:50:18;;;;;;;5.35;3.95;;;0.10;99.90;;;;;;5034632;28;20045;-86
2022/04/03 04:52:44;;;;;;;7.70;4.40;;;0.00;99.90;;;;;;5033516;28;20102;-86
2022/04/03 04:55:10;;;;;;;9.32;4.60;;;0.10;99.90;;;;;;5038082;28;20044;-86
2022/04/03 04:57:37;;;;;;;7.88;4.22;;;0.10;99.90;;;;;;5039460;28;20379;-87
2022/04/03 05:00:08;;;;;;;6.75;4.28;;;0.00;99.90;;;;;;5058592;28;20493;-86
2022/04/03 05:02:34;;;;;;;6.30;4.03;;;0.00;99.90;;;;;;5048367;28;20025;-86
2022/04/03 05:04:59;;;;;;;5.72;4.32;;;-0.10;99.90;;;;;;5066861;28;20822;-86
2022/04/03 05:07:26;;;;;;;7.57;3.78;;;-0.10;99.90;;;;;;5032975;28;20057;-86
2022/04/03 05:09:55;;;;;;;11.43;3.92;;;-0.20;99.90;;;;;;5054367;28;20472;-86
2022/04/03 05:12:36;;;;;;;6.80;3.80;;;-0.10;99.90;;;;;;5052076;28;20555;-86
2022/04/03 05:15:08;;;;;;;4.05;3.40;;;-0.10;99.90;;;;;;5038231;28;20136;-86
2022/04/03 05:17:34;;;;;;;5.38;4.28;;;0.00;99.90;;;;;;5041366;28;20045;-86
2022/04/03 05:19:59;;;;;;;5.95;3.80;;;-0.10;99.90;;;;;;5054980;28;20047;-85
2022/04/03 05:22:26;;;;;;;7.13;4.00;;;0.00;99.90;;;;;;5054718;28;20032;-86
2022/04/03 05:24:53;;;;;;;5.30;3.75;;;0.10;99.90;;;;;;5054785;28;20025;-86
2022/04/03 05:27:19;;;;;;;5.72;3.70;;;0.10;99.90;;;;;;5055693;28;20048;-86
2022/04/03 05:29:45;;;;;;;4.38;3.53;;;0.10;99.90;;;;;;5038582;28;20043;-86
2022/04/03 05:32:11;;;;;;;5.55;3.53;;;0.00;99.90;;;;;;5052380;28;20598;-85
2022/04/03 05:34:37;;;;;;;6.63;3.60;;;0.10;99.90;;;;;;5035666;28;20036;-86
2022/04/03 05:37:03;;;;;;;6.50;3.97;;;0.00;99.90;;;;;;5037642;28;20036;-86
2022/04/03 05:39:30;;;;;;;8.63;4.00;;;0.10;99.90;;;;;;5036413;28;20044;-86
2022/04/03 05:41:55;;;;;;;4.88;3.70;;;0.20;99.90;;;;;;5063477;28;20051;-86
2022/04/03 05:44:22;;;;;;;5.25;3.72;;;0.20;99.90;;;;;;5045053;28;21092;-86
2022/04/03 05:46:49;;;;;;;5.65;3.50;;;0.30;99.90;;;;;;5044860;28;20445;-86
2022/04/03 05:49:15;;;;;;;5.70;3.70;;;0.30;99.90;;;;;;5050374;28;20131;-86
2022/04/03 05:51:42;;;;;;;8.55;4.30;;;0.30;99.90;;;;;;5054132;28;20372;-86
2022/04/03 05:54:08;;;;;;;6.78;4.00;;;0.30;99.90;;;;;;5039723;28;20032;-86
2022/04/03 05:56:34;;;;;;;7.43;4.05;;;0.40;99.90;;;;;;5036805;28;20047;-86
2022/04/03 05:59:00;;;;;;;5.47;3.60;;;0.40;99.90;;;;;;5033837;28;20404;-86
2022/04/03 06:01:26;;;;;;;6.43;4.15;;;0.40;99.90;;;;;;5047174;28;20033;-85
2022/04/03 06:03:52;;;;;;;5.53;3.72;;;0.50;99.90;;;;;;5047929;28;20031;-86
2022/04/03 06:06:18;;;;;;;6.18;3.75;;;0.40;99.90;;;;;;5033637;28;20482;-86
2022/04/03 06:08:44;;;;;;;4.78;3.65;;;0.40;99.90;;;;;;5036038;28;20045;-86
2022/04/03 06:11:21;;;;;;;5.47;3.55;;;0.40;99.90;;;;;;5045590;28;20173;-86
2022/04/03 06:13:56;;;;;;;5.03;3.85;;;0.50;99.90;;;;;;5065090;28;20459;-86
2022/04/03 06:16:24;;;;;;;6.03;3.63;;;0.70;99.90;;;;;;5032799;28;20132;-86
2022/04/03 06:18:52;;;;;;;6.03;4.00;;;0.80;99.90;;;;;;5039836;28;20037;-87
2022/04/03 06:21:24;;;;;;;7.03;3.53;;;0.90;99.90;;;;;;5052120;28;20048;-86
2022/04/03 06:23:50;;;;;;;5.18;3.65;;;1.00;77.90;;;;;;5055220;28;20039;-86
2022/04/03 06:26:16;;;;;;;5.53;3.88;;;1.10;64.10;;;;;;5054385;28;20045;-87
2022/04/03 06:28:42;;;;;;;4.30;3.38;;;1.30;19.10;;;;;;5037840;28;20051;-87
2022/04/03 06:31:10;;;;;;;4.93;3.10;;;1.30;1.00;;;;;;5055651;28;20051;-87
2022/04/03 06:33:36;;;;;;;4.32;3.30;;;1.60;1.00;;;;;;5053636;28;20036;-86
2022/04/03 06:36:02;;;;;;;5.43;3.03;;;1.70;1.00;;;;;;5055730;28;20650;-86
2022/04/03 06:38:34;;;;;;;5.18;3.63;;;1.80;1.00;;;;;;5053615;28;20059;-87
2022/04/03 06:41:03;;;;;;;5.03;3.35;;;1.80;1.00;;;;;;5067770;28;20047;-86
2022/04/03 06:43:34;;;;;;;5.82;2.97;;;1.80;1.00;;;;;;5039038;28;20041;-86
2022/04/03 06:46:04;;;;;;;5.40;3.03;;;1.80;1.00;;;;;;5036542;28;20119;-87
2022/04/03 06:48:30;;;;;;;3.70;2.90;;;1.80;1.00;;;;;;5054617;28;20032;-86
2022/04/03 06:50:55;;;;;;;4.90;3.40;;;1.80;1.00;;;;;;5067486;28;20387;-87
2022/04/03 06:53:24;;;;;;;4.30;3.15;;;1.90;1.00;;;;;;5048535;28;20332;-86
2022/04/03 06:55:58;;;;;;;6.25;3.35;;;2.00;1.00;;;;;;5058335;28;20522;-87
2022/04/03 06:58:37;;;;;;;3.85;2.90;;;2.10;1.00;;;;;;5046115;28;20765;-87
2022/04/03 07:01:03;;;;;;;6.90;3.15;;;2.10;1.00;;;;;;5050981;28;20075;-87
2022/04/03 07:03:31;;;;;;;5.35;2.83;;;2.00;1.00;;;;;;5052124;28;20064;-87
2022/04/03 07:06:02;;;;;;;7.07;3.03;;;2.10;1.00;;;;;;5031769;28;20110;-86
2022/04/03 07:08:28;;;;;;;4.70;2.95;;;2.10;1.00;;;;;;5052742;28;20068;-86
2022/04/03 07:10:57;;;;;;;3.67;3.03;;;2.30;1.00;;;;;;5036166;28;20056;-88
2022/04/03 07:13:25;;;;;;;5.95;3.10;;;2.50;1.00;;;;;;5037619;28;20495;-88
2022/04/03 07:15:51;;;;;;;3.83;3.03;;;2.60;14.50;;;;;;5038631;28;20036;-87
2022/04/03 07:18:17;;;;;;;6.50;2.85;;;2.70;1.00;;;;;;5034975;28;20049;-87
2022/04/03 07:21:03;;;;;;;7.43;2.80;;;2.90;1.00;;;;;;5074250;28;20067;-88
2022/04/03 07:23:28;;;;;;;5.05;2.60;;;3.20;1.00;;;;;;5068307;28;20098;-89
2022/04/03 07:25:57;;;;;;;4.18;2.65;;;3.30;1.00;;;;;;5055834;28;20055;-89
2022/04/03 07:28:24;;;;;;;4.05;2.83;;;3.60;1.00;;;;;;5061946;28;20055;-88
2022/04/03 07:30:49;;;;;;;9.40;2.90;;;3.80;12.10;;;;;;5042320;28;20372;-89
2022/04/03 07:33:21;;;;;;;5.25;3.08;;;4.10;1.00;;;;;;5056999;28;20051;-87
2022/04/03 07:35:48;;;;;;;3.83;2.38;;;4.30;1.00;;;;;;5057103;28;20052;-85
2022/04/03 07:38:14;;;;;;;5.18;2.40;;;4.20;1.00;;;;;;5066015;28;20178;-86
2022/04/03 07:40:40;;;;;;;7.30;2.58;;;4.30;99.90;;;;;;5038739;28;20137;-87
2022/04/03 07:43:06;;;;;;;2.60;2.00;;;4.50;1.00;;;;;;5040389;28;20696;-86
2022/04/03 07:45:42;;;;;;;5.53;2.10;;;4.80;99.90;;;;;;5039975;28;20411;-85
2022/04/03 07:48:10;;;;;;;3.63;2.33;;;4.90;1.00;;;;;;5056706;28;20044;-85
2022/04/03 07:50:36;;;;;;;3.40;2.10;;;4.90;99.90;;;;;;5042405;28;20279;-84
2022/04/03 07:53:02;;;;;;;4.00;1.83;;;5.20;1.00;;;;;;5055885;28;20384;-83
2022/04/03 07:55:31;;;;;;;4.72;1.77;;;5.20;99.90;;;;;;5039434;28;20044;-84
2022/04/03 07:57:57;;;;;;;4.90;1.90;;;5.30;99.90;;;;;;5052465;28;20037;-83
2022/04/03 08:00:26;;;;;;;5.72;1.88;;;5.40;99.90;;;;;;5039060;28;20059;-84
2022/04/03 08:02:51;;;;;;;2.05;1.25;;;5.60;77.20;;;;;;5035647;28;20436;-84
2022/04/03 08:05:17;;;;;;;3.03;1.45;;;5.70;99.90;;;;;;5053956;28;20052;-85
2022/04/03 08:07:56;;;;;;;3.03;1.58;;;5.50;99.90;;;;;;5045527;28;20465;-85
2022/04/03 08:10:22;;;;;;;2.63;1.67;;;5.40;99.90;;;;;;5051207;28;20217;-85
2022/04/03 08:12:54;;;;;;;3.72;1.65;;;5.50;99.90;;;;;;5036396;28;20059;-86
2022/04/03 08:15:24;;;;;;;3.28;1.23;;;5.70;1.00;;;;;;5041938;28;20393;-86
2022/04/03 08:17:49;;;;;;;4.20;1.80;;;5.80;1.00;;;;;;5037170;28;20122;-87
2022/04/03 08:20:17;;;;;;;3.35;1.60;;;6.00;1.00;;;;;;5038446;28;20036;-86
2022/04/03 08:22:52;;;;;;;3.65;1.42;;;6.00;99.90;;;;;;5054562;28;20032;-87
2022/04/03 08:25:21;;;;;;;5.88;1.95;;;6.10;99.90;;;;;;5041398;28;20328;-87
2022/04/03 08:27:49;;;;;;;4.25;1.67;;;6.20;99.90;;;;;;5048173;28;20498;-86
2022/04/03 08:30:31;;;;;;;2.40;1.35;;;6.30;99.90;;;;;;5037019;28;20047;-87
2022/04/03 08:33:06;;;;;;;3.60;1.33;;;6.50;12.30;;;;;;5054265;28;20055;-86
2022/04/03 08:35:37;;;;;;;2.08;1.27;;;6.40;71.60;;;;;;5056220;28;20268;-88
2022/04/03 08:38:04;;;;;;;2.88;1.23;;;6.50;99.90;;;;;;5038087;28;20036;-88
2022/04/03 08:40:31;;;;;;;3.30;1.20;;;6.60;1.00;;;;;;5034861;28;22195;-87
2022/04/03 08:42:57;;;;;;;6.80;1.58;;;6.60;1.00;;;;;;5040482;28;20116;-88
2022/04/03 08:45:26;;;;;;;3.53;1.63;;;6.90;72.30;;;;;;5038900;28;20541;-87
2022/04/03 08:47:54;;;;;;;5.75;1.40;;;7.00;1.00;;;;;;5055545;28;20286;-87
2022/04/03 08:50:31;;;;;;;4.28;1.63;;;7.10;1.00;;;;;;5065444;28;20041;-86
2022/04/03 08:53:01;;;;;;;3.35;1.10;;;7.40;1.00;;;;;;5065128;28;20135;-88
2022/04/03 08:55:27;;;;;;;3.58;1.13;;;7.50;99.90;;;;;;5071255;28;20151;-87
2022/04/03 08:57:59;;;;;;;2.92;1.10;;;7.50;99.90;;;;;;5040677;28;20266;-89
2022/04/03 09:00:25;;;;;;;1.98;0.90;;;7.60;99.90;;;;;;5040016;28;20033;-88
2022/04/03 09:02:51;;;;;;;3.33;1.08;;;7.70;99.90;;;;;;5053964;28;20137;-88
2022/04/03 09:05:18;;;;;;;5.25;0.98;;;8.00;99.90;;;;;;5057375;28;20048;-88
2022/04/03 09:07:57;;;;;;;2.95;1.15;;;7.90;99.90;;;;;;5034937;28;20057;-87
2022/04/03 09:10:23;;;;;;;3.53;1.10;;;8.30;99.90;;;;;;5039453;28;20427;-89
2022/04/03 09:12:57;;;;;;;2.38;1.13;;;7.80;99.90;;;;;;5039630;28;20563;-87
2022/04/03 09:15:25;;;;;;;4.03;1.15;;;8.10;99.90;;;;;;5038912;28;20055;-87
2022/04/03 09:18:01;;;;;;;5.68;1.50;;;8.40;99.90;;;;;;5041003;28;20124;-87
2022/04/03 09:20:37;;;;;;;3.00;0.93;;;7.70;99.90;;;;;;5053760;28;20047;-87
2022/04/03 09:23:08;;;;;;;3.75;1.20;;;7.60;99.90;;;;;;5049003;28;20040;-87
2022/04/03 09:25:44;;;;;;;3.55;1.60;;;7.40;99.90;;;;;;5040693;28;20040;-88
2022/04/03 09:28:14;;;;;;;2.92;1.30;;;7.20;99.90;;;;;;5040472;28;20040;-87
2022/04/03 09:30:49;;;;;;;2.97;1.50;;;7.20;99.90;;;;;;5069139;28;20043;-86
2022/04/03 09:33:20;;;;;;;2.47;1.27;;;7.10;99.90;;;;;;5058129;28;20132;-87
2022/04/03 09:35:57;;;;;;;3.17;1.10;;;7.10;99.90;;;;;;5057511;28;20045;-87
2022/04/03 09:38:23;;;;;;;2.65;0.95;;;7.00;99.90;;;;;;5037778;28;20044;-88
2022/04/03 09:40:52;;;;;;;2.97;1.05;;;7.10;99.90;;;;;;5046339;28;20036;-88
2022/04/03 09:43:23;;;;;;;2.63;1.02;;;7.80;99.90;;;;;;5046613;28;20072;-87
2022/04/03 09:46:00;;;;;;;4.40;1.00;;;8.30;99.90;;;;;;5057131;28;20036;-88
2022/04/03 09:48:35;;;;;;;4.05;1.23;;;8.50;99.90;;;;;;5037780;28;20093;-88
2022/04/03 09:51:09;;;;;;;2.50;1.00;;;8.40;99.90;;;;;;5071345;28;20384;-88
2022/04/03 09:54:02;;;;;;;5.57;1.10;;;7.90;99.90;;;;;;5037341;28;20043;-88
2022/04/03 09:56:34;;;;;;;1.70;0.88;;;7.40;99.90;;;;;;5041361;28;20040;-88
2022/04/03 09:59:07;;;;;;;4.67;1.40;;;7.20;99.90;;;;;;5048886;28;20515;-87
2022/04/03 10:01:40;;;;;;;1.88;1.05;;;7.60;99.90;;;;;;5039636;28;21223;-87
2022/04/03 10:04:13;;;;;;;1.92;0.88;;;8.20;99.90;;;;;;5041306;28;20037;-88
2022/04/03 10:06:40;;;;;;;2.30;0.70;;;8.50;99.90;;;;;;5034999;28;20032;-88
2022/04/03 10:09:19;;;;;;;2.83;0.85;;;8.50;99.90;;;;;;5055541;28;20045;-89
2022/04/03 10:11:46;;;;;;;1.90;0.50;;;9.00;99.90;;;;;;5050021;28;20341;-88
2022/04/03 10:14:12;;;;;;;1.02;0.80;;;8.70;99.90;;;;;;5040996;28;20107;-89
2022/04/03 10:16:38;;;;;;;1.83;0.60;;;8.80;99.90;;;;;;5041127;28;20575;-88
2022/04/03 10:19:04;;;;;;;2.85;1.20;;;8.20;99.90;;;;;;5040438;28;20412;-88
2022/04/03 10:21:39;;;;;;;2.28;0.50;;;7.60;99.90;;;;;;5038202;28;20033;-89
2022/04/03 10:24:14;;;;;;;1.98;0.47;;;7.30;99.90;;;;;;5064139;28;20127;-88
2022/04/03 10:26:41;;;;;;;;;;;8.00;99.90;;;;;;5051898;28;20472;-88
2022/04/03 10:29:09;;;;;;;2.85;0.57;;;8.60;99.90;;;;;;5040284;28;20398;-87
2022/04/03 10:31:53;;;;;;;1.65;0.50;;;9.10;99.90;;;;;;5062725;28;20036;-89
2022/04/03 10:34:21;;;;;;;2.28;0.47;;;8.90;99.90;;;;;;5046924;28;20507;-88
2022/04/03 10:36:49;;;;;;;4.00;0.68;;;8.60;99.90;;;;;;5054183;28;20055;-89
2022/04/03 10:39:41;;;;;;;2.10;0.70;;;7.90;99.90;;;;;;5048729;28;20037;-88
2022/04/03 10:42:19;;;;;;;1.50;0.77;;;7.60;99.90;;;;;;5037276;28;20046;-89
2022/04/03 10:45:13;;;;;;;1.20;0.80;;;7.60;99.90;;;;;;5072499;28;20105;-89
2022/04/03 10:47:43;;;;;;;3.25;0.95;;;7.70;99.90;;;;;;5051321;28;20345;-88
2022/04/03 10:50:13;;;;;;;3.15;1.02;;;7.80;99.90;;;;;;5048442;28;20186;-89
2022/04/03 10:52:41;;;;;;;3.85;1.23;;;7.60;99.90;;;;;;5064585;28;20028;-88
2022/04/03 10:55:25;;;;;;;2.30;1.10;;;7.30;99.90;;;;;;5040666;28;20468;-88
2022/04/03 10:57:55;;;;;;;3.15;1.20;;;7.50;99.90;;;;;;5044675;28;20143;-87
2022/04/03 11:00:24;;;;;;;3.00;1.05;;;7.90;99.90;;;;;;5039970;28;20413;-88
2022/04/03 11:03:13;;;;;;;2.00;0.93;;;8.10;99.90;;;;;;5043521;28;20070;-88
2022/04/03 11:05:39;;;;;;;4.32;0.95;;;7.90;99.90;;;;;;5051806;28;20076;-88
2022/04/03 11:08:04;;;;;;;2.20;0.93;;;7.80;99.90;;;;;;5048447;28;20091;-89
2022/04/03 11:11:07;;;;;;;2.85;1.27;;;7.80;99.90;;;;;;5044229;28;20080;-89
2022/04/03 11:13:33;;;;;;;3.03;1.20;;;7.50;99.90;;;;;;5052329;28;20139;-89
2022/04/03 11:16:06;;;;;;;1.50;1.00;;;7.20;99.90;;;;;;5043174;28;20135;-89
2022/04/03 11:18:53;;;;;;;3.47;1.20;;;7.20;99.90;;;;;;5042364;28;20547;-88
2022/04/03 11:21:30;;;;;;;1.50;1.17;;;7.20;99.90;;;;;;5055561;28;20056;-89
2022/04/03 11:24:06;;;;;;;2.20;0.98;;;7.50;99.90;;;;;;5042786;28;20064;-88
2022/04/03 11:26:33;;;;;;;2.58;1.08;;;7.60;99.90;;;;;;5043247;28;20037;-90
2022/04/03 11:28:59;;;;;;;6.50;1.30;;;7.70;99.90;;;;;;5042472;28;20029;-90
2022/04/03 11:31:32;;;;;;;2.08;1.33;;;7.80;99.90;;;;;;5053508;28;20253;-88
2022/04/03 11:34:00;;;;;;;3.08;1.40;;;7.70;99.90;;;;;;5068204;28;20037;-90
2022/04/03 11:36:31;;;;;;;2.95;1.40;;;7.60;1.00;;;;;;5054994;28;20056;-90
2022/04/03 11:39:08;;;;;;;4.55;1.58;;;7.20;1.00;;;;;;5043219;28;20040;-89
2022/04/03 11:41:39;;;;;;;7.22;1.60;;;7.10;1.00;;;;;;5069855;28;20097;-89
2022/04/03 11:44:11;;;;;;;2.50;1.40;;;7.00;1.00;;;;;;5039328;28;20424;-90
2022/04/03 11:46:45;;;;;;;3.15;1.40;;;6.90;1.00;;;;;;5053673;28;20051;-89
2022/04/03 11:49:21;;;;;;;3.38;1.45;;;7.20;1.00;;;;;;5054827;28;20036;-88
2022/04/03 11:51:52;;;;;;;3.53;1.27;;;7.10;1.00;;;;;;5053379;28;20483;-90
2022/04/03 11:54:17;;;;;;;3.65;1.70;;;7.20;1.00;;;;;;5040766;28;20048;-89
2022/04/03 11:56:44;;;;;;;2.33;1.40;;;7.20;1.00;;;;;;5044649;28;20470;-89
2022/04/03 11:59:09;;;;;;;2.58;1.27;;;7.30;99.90;;;;;;5040370;28;20156;-89
2022/04/03 12:01:38;;;;;;;5.18;1.60;;;7.40;99.90;;;;;;5052950;28;20113;-89
2022/04/03 12:04:22;;;;;;;1.92;1.00;;;7.30;1.00;;;;;;5039510;28;20033;-88
2022/04/03 12:06:51;;;;;;;1.20;0.70;;;7.00;99.90;;;;;;5044893;28;20526;-89
2022/04/03 12:09:19;;;;;;;0.80;0.50;;;6.50;99.90;;;;;;5047591;28;20120;-88
2022/04/03 12:11:48;;;;;;;1.05;0.40;;;6.30;99.90;;;;;;5057748;28;20048;-88
2022/04/03 12:14:31;;;;;;;1.33;0.40;;;6.10;99.90;;;;;;5039443;28;20048;-88
2022/04/03 12:17:10;;;;;;;1.23;0.57;;;5.80;99.90;;;;;;5036897;28;20341;-87
2022/04/03 12:19:42;;;;;;;1.30;0.50;;;5.80;99.90;;;;;;5055397;28;20072;-87
2022/04/03 12:22:10;;;;;;;1.75;0.52;;;5.80;99.90;;;;;;5031289;28;20036;-88
2022/04/03 12:24:39;;;;;;;0.95;0.43;;;5.90;99.90;;;;;;5054309;28;20048;-87
2022/04/03 12:27:05;;;;;;;0.57;0.45;;;6.00;99.90;;;;;;5042917;28;20047;-87
2022/04/03 12:29:39;;;;;;;0.82;0.63;;;6.20;99.90;;;;;;5036450;28;20043;-87
2022/04/03 12:32:10;;;;;;;0.55;0.45;;;6.20;99.90;;;;;;5056585;28;20536;-87
2022/04/03 12:34:40;;;;;;;0.68;0.52;;;6.20;99.90;;;;;;5037788;28;20189;-88
2022/04/03 12:37:14;;;;;;;1.63;0.50;;;6.40;99.90;;;;;;5038697;28;20128;-87
2022/04/03 12:39:52;;;;;;;1.85;0.60;;;6.70;99.90;;;;;;5039985;28;20036;-88
2022/04/03 12:42:41;;;;;;;1.30;0.40;;;6.80;99.90;;;;;;5057511;28;20123;-88
2022/04/03 12:45:27;;;;;;;1.42;0.60;;;6.90;99.90;;;;;;5048530;28;20487;-88
2022/04/03 12:48:02;;;;;;;1.45;0.50;;;7.50;99.90;;;;;;5041370;28;20072;-88
2022/04/03 12:50:31;;;;;;;1.55;0.50;;;7.80;99.90;;;;;;5041690;28;20051;-88
2022/04/03 12:53:03;;;;;;;1.30;0.70;;;7.70;99.90;;;;;;5035277;28;20143;-88
2022/04/03 12:55:41;;;;;;;1.10;0.88;;;8.50;99.90;;;;;;5075721;28;20347;-89
2022/04/03 12:58:24;;;;;;;2.10;0.77;;;9.40;99.90;;;;;;5048087;28;20052;-88
2022/04/03 13:01:06;;;;;;;1.25;1.05;;;10.00;99.90;;;;;;5054939;28;20479;-88
2022/04/03 13:03:37;;;;;;;3.80;1.25;;;9.70;99.90;;;;;;5041374;28;20029;-89
2022/04/03 13:06:05;;;;;;;4.40;1.58;;;9.50;99.90;;;;;;5041927;28;20032;-89
2022/04/03 13:08:46;;;;;;;3.42;1.33;;;8.70;99.90;;;;;;5039995;28;20313;-89
2022/04/03 13:11:29;;;;;;;2.80;1.20;;;8.20;99.90;;;;;;5056657;28;20111;-89